Time;durP1;ratioP1;P1;durP2;ratioP2;P2;SDS_P1;SDS_P2;PMS_P1;PMS_P2;Temp;Humidity;BMP_temperature;BMP_pressure;BME280_temperature;BME280_humidity;BME280_pressure;Samples;Min_cycle;Max_cycle;Signal;HPM_P1;HPM_P2
2022/04/16 00:01:49;;;;;;;2.63;2.42;;;17.20;56.20;;;;;;5135603;27;20208;-72
2022/04/16 00:04:14;;;;;;;3.08;2.40;;;17.20;56.30;;;;;;5135583;27;20173;-71
2022/04/16 00:06:40;;;;;;;2.80;2.60;;;17.20;56.20;;;;;;5135980;27;20225;-74
2022/04/16 00:09:05;;;;;;;2.60;2.40;;;17.20;56.20;;;;;;5136060;27;20176;-74
2022/04/16 00:11:31;;;;;;;2.70;2.50;;;17.10;56.20;;;;;;5135216;27;20177;-73
2022/04/16 00:13:56;;;;;;;2.45;2.25;;;17.20;56.20;;;;;;5135588;27;20642;-74
2022/04/16 00:16:22;;;;;;;2.90;2.70;;;17.20;56.20;;;;;;5135785;27;20188;-73
2022/04/16 00:18:48;;;;;;;2.60;2.40;;;17.10;56.10;;;;;;5135033;27;20183;-74
2022/04/16 00:21:13;;;;;;;2.90;2.65;;;17.10;56.10;;;;;;5135937;27;20180;-73
2022/04/16 00:23:40;;;;;;;2.60;2.40;;;17.10;56.10;;;;;;5134855;27;20199;-73
2022/04/16 00:26:07;;;;;;;2.80;2.60;;;17.10;56.10;;;;;;5135821;27;20232;-73
2022/04/16 00:28:33;;;;;;;2.47;2.30;;;17.10;56.10;;;;;;5118300;27;20180;-73
2022/04/16 00:30:59;;;;;;;3.00;2.60;;;17.10;56.10;;;;;;5155227;27;20172;-73
2022/04/16 00:33:25;;;;;;;2.47;2.28;;;17.10;56.10;;;;;;5156173;27;20215;-71
2022/04/16 00:35:50;;;;;;;3.03;2.83;;;17.10;56.10;;;;;;5155077;27;20184;-72
2022/04/16 00:38:16;;;;;;;4.20;2.95;;;17.10;56.10;;;;;;5155638;27;20224;-72
2022/04/16 00:40:41;;;;;;;2.72;2.40;;;17.10;56.10;;;;;;5155890;27;20625;-72
2022/04/16 00:43:07;;;;;;;3.00;2.72;;;17.10;56.10;;;;;;5156145;27;20178;-72
2022/04/16 00:45:33;;;;;;;2.65;2.45;;;17.10;56.10;;;;;;5155265;27;20571;-73
2022/04/16 00:47:59;;;;;;;3.13;2.83;;;17.00;56.10;;;;;;5155985;27;20179;-73
2022/04/16 00:50:24;;;;;;;3.63;2.83;;;17.00;56.10;;;;;;5156088;27;20168;-73
2022/04/16 00:52:50;;;;;;;3.03;2.83;;;17.00;56.10;;;;;;5154930;27;20163;-73
2022/04/16 00:55:18;;;;;;;3.05;2.85;;;17.00;56.10;;;;;;5137469;27;20537;-72
2022/04/16 00:57:44;;;;;;;2.92;2.70;;;17.00;56.10;;;;;;5155348;27;20168;-72
2022/04/16 01:00:10;;;;;;;2.97;2.78;;;17.00;56.10;;;;;;5154984;27;20175;-71
2022/04/16 01:02:37;;;;;;;3.03;2.72;;;17.00;56.10;;;;;;5155210;27;20231;-72
2022/04/16 01:05:04;;;;;;;2.95;2.75;;;17.00;56.10;;;;;;5155804;27;20164;-72
2022/04/16 01:07:30;;;;;;;3.00;2.80;;;17.00;56.10;;;;;;5154978;27;20217;-73
2022/04/16 01:09:55;;;;;;;3.08;2.83;;;17.00;56.00;;;;;;5155408;27;20167;-75
2022/04/16 01:12:21;;;;;;;3.63;3.00;;;17.00;56.10;;;;;;5155449;27;20167;-72
2022/04/16 01:14:46;;;;;;;3.05;2.67;;;17.00;56.10;;;;;;5154330;27;20211;-73
2022/04/16 01:17:15;;;;;;;3.00;2.80;;;17.00;56.10;;;;;;5155530;27;20168;-72
2022/04/16 01:19:41;;;;;;;3.38;3.08;;;17.00;56.10;;;;;;5155258;27;20180;-73
2022/04/16 01:22:09;;;;;;;2.75;2.55;;;16.90;56.10;;;;;;5155111;27;20187;-72
2022/04/16 01:24:34;;;;;;;3.30;3.00;;;16.90;56.10;;;;;;5137027;27;20486;-74
2022/04/16 01:27:00;;;;;;;2.92;2.72;;;16.90;56.10;;;;;;5154515;27;20636;-72
2022/04/16 01:29:26;;;;;;;3.45;3.22;;;16.90;56.10;;;;;;5146481;27;20168;-71
2022/04/16 01:31:54;;;;;;;2.92;2.72;;;16.90;56.10;;;;;;5134330;27;20169;-72
2022/04/16 01:34:20;;;;;;;3.35;3.05;;;16.90;56.20;;;;;;5133997;27;20243;-70
2022/04/16 01:36:46;;;;;;;3.00;2.70;;;16.90;56.10;;;;;;5134194;27;20196;-70
2022/04/16 01:39:12;;;;;;;3.53;3.22;;;16.90;56.10;;;;;;5134568;27;20169;-72
2022/04/16 01:41:37;;;;;;;3.35;3.05;;;16.90;56.10;;;;;;5133342;27;20661;-72
2022/04/16 01:44:03;;;;;;;3.35;2.95;;;16.90;56.10;;;;;;5134158;27;20670;-73
2022/04/16 01:46:29;;;;;;;3.63;3.33;;;16.90;56.10;;;;;;5134547;27;20511;-72
2022/04/16 01:48:55;;;;;;;3.17;2.95;;;16.90;56.10;;;;;;5133354;27;20180;-73
2022/04/16 01:51:21;;;;;;;3.38;3.17;;;16.90;56.10;;;;;;5134091;27;20191;-73
2022/04/16 01:53:46;;;;;;;3.45;3.17;;;16.90;56.10;;;;;;5133694;27;20222;-74
2022/04/16 01:56:12;;;;;;;3.25;3.05;;;16.90;56.10;;;;;;5133145;27;20169;-72
2022/04/16 01:58:41;;;;;;;3.40;3.20;;;16.80;56.00;;;;;;5133826;27;20176;-72
2022/04/16 02:01:07;;;;;;;3.35;3.10;;;16.80;56.00;;;;;;5133982;27;20169;-71
2022/04/16 02:03:33;;;;;;;3.35;3.05;;;16.80;56.00;;;;;;5132873;27;20240;-73
2022/04/16 02:05:59;;;;;;;3.65;3.45;;;16.80;56.00;;;;;;5133465;27;20230;-73
2022/04/16 02:08:24;;;;;;;3.17;2.97;;;16.80;56.00;;;;;;5133120;27;20291;-75
2022/04/16 02:10:50;;;;;;;3.10;2.90;;;16.80;56.00;;;;;;5132555;27;20180;-74
2022/04/16 02:13:15;;;;;;;3.63;3.40;;;16.80;56.00;;;;;;5133528;27;20204;-73
2022/04/16 02:15:41;;;;;;;3.53;3.25;;;16.80;56.00;;;;;;5133173;27;20542;-73
2022/04/16 02:18:06;;;;;;;3.63;3.33;;;16.80;56.00;;;;;;5132905;27;20175;-72
2022/04/16 02:20:32;;;;;;;3.28;3.08;;;16.80;56.00;;;;;;5133606;27;20177;-74
2022/04/16 02:22:57;;;;;;;3.25;3.05;;;16.80;56.00;;;;;;5133315;27;20711;-72
2022/04/16 02:25:26;;;;;;;3.67;3.17;;;16.80;56.00;;;;;;5132596;27;20639;-72
2022/04/16 02:27:52;;;;;;;3.78;3.47;;;16.80;56.00;;;;;;5133365;27;20175;-73
2022/04/16 02:30:17;;;;;;;3.47;3.25;;;16.80;56.00;;;;;;5148786;27;20168;-73
2022/04/16 02:32:48;;;;;;;3.58;3.35;;;16.80;56.00;;;;;;5153980;27;20171;-72
2022/04/16 02:35:15;;;;;;;4.18;3.85;;;16.70;56.00;;;;;;5154038;27;20270;-73
2022/04/16 02:37:41;;;;;;;3.90;3.53;;;16.70;56.00;;;;;;5152898;27;20618;-72
2022/04/16 02:40:07;;;;;;;3.88;3.58;;;16.70;56.00;;;;;;5153849;27;20186;-72
2022/04/16 02:42:34;;;;;;;3.42;3.22;;;16.70;56.00;;;;;;5154074;27;20227;-72
2022/04/16 02:47:44;;;;;;;3.15;2.95;;;16.70;56.00;;;;;;5153512;27;20182;-73
2022/04/16 02:50:09;;;;;;;2.95;2.75;;;16.70;56.00;;;;;;5153749;27;20168;-74
2022/04/16 02:52:36;;;;;;;3.55;3.25;;;16.70;56.00;;;;;;5152528;27;20178;-73
2022/04/16 02:55:03;;;;;;;3.90;3.60;;;16.70;56.00;;;;;;5153652;27;20298;-73
2022/04/16 02:57:30;;;;;;;4.05;3.47;;;16.70;56.00;;;;;;5153823;27;20188;-71
2022/04/16 02:59:56;;;;;;;3.83;3.53;;;16.70;56.00;;;;;;5152242;27;20179;-71
2022/04/16 03:02:21;;;;;;;3.70;3.40;;;16.70;56.00;;;;;;5153470;27;20219;-70
2022/04/16 03:04:49;;;;;;;3.50;3.20;;;16.70;56.00;;;;;;5153290;27;20224;-73
2022/04/16 03:07:15;;;;;;;4.20;3.80;;;16.60;56.00;;;;;;5152776;27;20212;-73
2022/04/16 03:09:41;;;;;;;3.75;3.47;;;16.60;56.00;;;;;;5153473;27;20206;-73
2022/04/16 03:12:07;;;;;;;4.07;3.72;;;16.70;56.00;;;;;;5153474;27;20630;-73
2022/04/16 03:17:31;;;;;;;3.63;3.33;;;16.60;56.00;;;;;;5153364;27;20170;-73
2022/04/16 03:20:04;;;;;;;3.55;3.35;;;16.60;56.00;;;;;;5152531;27;20193;-74
2022/04/16 03:22:30;;;;;;;4.35;3.95;;;16.60;56.00;;;;;;5153258;27;20548;-73
2022/04/16 03:24:56;;;;;;;3.78;3.47;;;16.60;56.00;;;;;;5153188;27;20514;-74
2022/04/16 03:27:21;;;;;;;4.35;3.72;;;16.60;56.00;;;;;;5152432;27;20189;-74
2022/04/16 03:29:47;;;;;;;3.95;3.65;;;16.60;56.00;;;;;;5141063;27;20238;-74
2022/04/16 03:32:12;;;;;;;3.55;3.35;;;16.60;56.00;;;;;;5132470;28;20175;-73
2022/04/16 03:34:38;;;;;;;3.40;3.10;;;16.60;55.90;;;;;;5131575;28;20208;-73
2022/04/16 03:37:04;;;;;;;3.50;3.30;;;16.60;56.00;;;;;;5132431;28;20195;-72
2022/04/16 03:39:29;;;;;;;3.90;3.60;;;16.60;56.10;;;;;;5132575;28;20188;-74
2022/04/16 03:41:55;;;;;;;3.83;3.55;;;16.60;56.10;;;;;;5131425;28;20305;-73
2022/04/16 03:44:20;;;;;;;3.50;3.20;;;16.60;56.10;;;;;;5132350;28;20533;-73
2022/04/16 03:46:46;;;;;;;3.80;3.50;;;16.60;56.10;;;;;;5131972;28;20196;-71
2022/04/16 03:49:11;;;;;;;4.05;3.75;;;16.50;56.10;;;;;;5131208;28;20219;-73
2022/04/16 03:51:37;;;;;;;4.05;3.30;;;16.50;56.00;;;;;;5132296;28;20172;-75
2022/04/16 04:02:15;;;;;;;3.95;3.65;;;16.60;56.10;;;;;;5131478;28;20254;-72
2022/04/16 04:04:43;;;;;;;3.83;3.50;;;16.50;56.00;;;;;;5132011;28;20578;-72
2022/04/16 04:07:10;;;;;;;3.88;3.58;;;16.50;56.10;;;;;;5132394;28;20176;-73
2022/04/16 04:09:35;;;;;;;3.58;3.28;;;16.50;56.10;;;;;;5131347;27;20218;-74
2022/04/16 04:12:01;;;;;;;4.95;3.60;;;16.50;56.10;;;;;;5135014;27;20172;-73
2022/04/16 04:14:26;;;;;;;4.07;3.72;;;16.50;56.10;;;;;;5135901;27;20299;-73
2022/04/16 04:16:55;;;;;;;3.70;3.38;;;16.50;56.10;;;;;;5134895;27;20164;-74
2022/04/16 04:19:20;;;;;;;3.88;3.60;;;16.50;56.10;;;;;;5135802;27;20175;-72
2022/04/16 04:21:46;;;;;;;3.90;3.60;;;16.50;56.10;;;;;;5135566;27;20173;-73
2022/04/16 04:24:14;;;;;;;4.05;3.65;;;16.50;56.00;;;;;;5134934;27;20233;-72
2022/04/16 04:26:39;;;;;;;3.78;3.45;;;16.50;56.10;;;;;;5135374;27;20263;-73
2022/04/16 04:29:05;;;;;;;3.72;3.47;;;16.50;56.20;;;;;;5141242;27;20718;-73
2022/04/16 04:31:31;;;;;;;3.75;3.45;;;16.40;56.00;;;;;;5155736;27;20182;-72
2022/04/16 04:33:56;;;;;;;3.90;3.53;;;16.40;56.10;;;;;;5155808;27;20204;-71
2022/04/16 04:36:24;;;;;;;4.00;3.70;;;16.50;56.20;;;;;;5156408;27;20189;-72
2022/04/16 04:38:50;;;;;;;4.00;3.65;;;16.40;56.10;;;;;;5155099;27;20179;-72
2022/04/16 04:41:15;;;;;;;3.63;3.33;;;16.40;56.00;;;;;;5156176;27;20602;-73
2022/04/16 04:43:41;;;;;;;3.80;3.50;;;16.40;56.00;;;;;;5155856;27;20168;-73
2022/04/16 04:46:06;;;;;;;3.60;3.38;;;16.40;56.10;;;;;;5155418;27;20175;-73
2022/04/16 04:48:32;;;;;;;3.63;3.35;;;16.40;56.10;;;;;;5156437;27;20179;-73
2022/04/16 04:50:57;;;;;;;4.20;3.80;;;16.40;56.10;;;;;;5154952;27;20176;-74
2022/04/16 04:53:23;;;;;;;4.22;3.83;;;16.40;56.10;;;;;;5155666;27;20547;-74
2022/04/16 04:55:48;;;;;;;3.50;3.20;;;16.40;56.80;;;;;;5155439;27;20610;-73
2022/04/16 04:58:14;;;;;;;3.72;3.40;;;16.40;56.10;;;;;;5155224;27;20252;-71
2022/04/16 05:00:39;;;;;;;4.05;3.75;;;16.40;56.10;;;;;;5155525;27;20254;-71
2022/04/16 05:03:05;;;;;;;4.22;3.83;;;16.40;56.00;;;;;;5155349;27;20223;-71
2022/04/16 05:05:30;;;;;;;4.07;3.75;;;16.40;56.10;;;;;;5154942;27;20544;-73
2022/04/16 05:07:56;;;;;;;3.58;3.28;;;16.40;56.10;;;;;;5155241;27;20172;-74
2022/04/16 05:10:22;;;;;;;4.35;3.83;;;16.40;56.10;;;;;;5155643;27;20561;-72
2022/04/16 05:12:48;;;;;;;3.90;3.60;;;16.40;56.10;;;;;;5154844;27;20170;-73
2022/04/16 05:15:15;;;;;;;3.65;3.35;;;16.40;56.10;;;;;;5155328;27;20708;-73
2022/04/16 05:17:40;;;;;;;3.83;3.53;;;16.40;56.10;;;;;;5155075;27;20647;-72
2022/04/16 05:20:09;;;;;;;3.85;3.47;;;16.40;56.00;;;;;;5154063;27;20205;-74
2022/04/16 05:22:35;;;;;;;4.25;3.50;;;16.40;56.00;;;;;;5154565;27;20634;-72
2022/04/16 05:25:00;;;;;;;3.58;3.28;;;16.40;56.10;;;;;;5155538;27;20216;-72
2022/04/16 05:27:26;;;;;;;4.18;3.80;;;16.40;56.10;;;;;;5153897;27;20254;-72
2022/04/16 05:30:07;;;;;;;3.67;3.38;;;16.40;56.00;;;;;;5142608;27;20642;-73
2022/04/16 05:32:36;;;;;;;3.70;3.40;;;16.40;56.00;;;;;;5134636;27;20575;-71
2022/04/16 05:35:05;;;;;;;4.07;3.78;;;16.40;56.00;;;;;;5133695;27;20265;-71
2022/04/16 05:37:30;;;;;;;3.80;3.50;;;16.40;56.10;;;;;;5134583;27;20276;-71
2022/04/16 05:39:56;;;;;;;3.75;3.53;;;16.40;56.00;;;;;;5134003;27;20263;-73
2022/04/16 05:42:21;;;;;;;4.35;4.03;;;16.40;56.60;;;;;;5133656;27;20185;-70
2022/04/16 05:44:46;;;;;;;4.03;3.63;;;16.40;56.10;;;;;;5133933;27;20172;-74
2022/04/16 05:47:12;;;;;;;3.80;3.50;;;16.40;56.00;;;;;;5133379;27;20248;-73
2022/04/16 05:49:37;;;;;;;3.95;3.65;;;16.40;56.00;;;;;;5133672;27;20651;-74
2022/04/16 05:52:03;;;;;;;4.00;3.70;;;16.40;55.90;;;;;;5134088;27;20593;-74
2022/04/16 05:54:29;;;;;;;3.72;3.42;;;16.40;56.00;;;;;;5133170;27;20212;-72
2022/04/16 05:56:57;;;;;;;4.20;3.90;;;16.40;55.90;;;;;;5133834;27;20215;-71
2022/04/16 05:59:23;;;;;;;3.70;3.40;;;16.40;56.00;;;;;;5133948;27;20173;-70
2022/04/16 06:01:51;;;;;;;4.03;3.72;;;16.40;56.00;;;;;;5132701;27;20220;-70
2022/04/16 06:04:17;;;;;;;3.88;3.58;;;16.50;56.10;;;;;;5134087;27;20173;-69
2022/04/16 06:06:43;;;;;;;3.85;3.55;;;16.50;56.10;;;;;;5133753;27;20176;-72
2022/04/16 06:09:08;;;;;;;3.72;3.45;;;16.50;56.10;;;;;;5132874;27;20180;-73
2022/04/16 06:11:34;;;;;;;4.15;3.83;;;16.60;56.10;;;;;;5133671;27;20242;-74
2022/04/16 06:13:59;;;;;;;4.20;3.90;;;16.60;56.00;;;;;;5133496;27;20204;-72
2022/04/16 06:16:26;;;;;;;3.92;3.63;;;16.60;56.00;;;;;;5133020;27;20571;-70
2022/04/16 06:18:51;;;;;;;3.80;3.50;;;16.60;56.00;;;;;;5133251;27;20181;-71
2022/04/16 06:21:17;;;;;;;4.03;3.67;;;16.60;56.00;;;;;;5133425;27;20654;-71
2022/04/16 06:23:42;;;;;;;4.13;3.67;;;16.60;55.90;;;;;;5132643;27;20623;-71
2022/04/16 06:26:08;;;;;;;3.70;3.40;;;16.70;56.10;;;;;;5133650;27;20269;-71
2022/04/16 06:28:33;;;;;;;4.18;3.88;;;16.60;56.00;;;;;;5134734;27;20279;-71
2022/04/16 06:30:59;;;;;;;3.75;3.45;;;16.60;56.00;;;;;;5153239;27;20188;-71
2022/04/16 06:33:24;;;;;;;4.00;3.60;;;16.70;55.90;;;;;;5153209;27;20318;-71
2022/04/16 06:35:50;;;;;;;3.78;3.42;;;16.70;55.60;;;;;;5154071;27;20229;-71
2022/04/16 06:38:15;;;;;;;3.72;3.40;;;16.80;56.30;;;;;;5153319;27;20171;-70
2022/04/16 06:40:41;;;;;;;3.67;3.35;;;16.90;55.40;;;;;;5153737;27;20222;-71
2022/04/16 06:43:06;;;;;;;3.38;3.08;;;17.10;55.30;;;;;;5154340;27;20167;-70
2022/04/16 06:45:32;;;;;;;3.08;2.88;;;17.30;55.20;;;;;;5153337;27;20533;-72
2022/04/16 06:47:57;;;;;;;3.28;2.97;;;17.50;55.00;;;;;;5153542;27;20179;-73
2022/04/16 06:50:23;;;;;;;3.22;3.03;;;17.70;54.80;;;;;;5153257;27;20163;-73
2022/04/16 06:52:51;;;;;;;3.50;3.13;;;17.90;54.40;;;;;;5153550;27;20228;-73
2022/04/16 06:55:17;;;;;;;3.78;3.00;;;18.10;54.00;;;;;;5153669;27;20555;-72
2022/04/16 06:57:42;;;;;;;3.25;3.05;;;18.30;53.40;;;;;;5152671;27;20220;-71
2022/04/16 07:00:08;;;;;;;2.83;2.63;;;18.60;53.10;;;;;;5153748;27;20168;-70
2022/04/16 07:02:34;;;;;;;2.70;2.45;;;18.70;52.80;;;;;;5153474;27;20230;-72
2022/04/16 07:04:59;;;;;;;2.60;2.40;;;18.80;52.60;;;;;;5152592;27;20182;-73
2022/04/16 07:07:25;;;;;;;2.95;2.65;;;18.80;52.50;;;;;;5153692;27;20207;-73
2022/04/16 07:09:50;;;;;;;2.95;2.75;;;18.80;52.60;;;;;;5153299;27;20230;-75
2022/04/16 07:12:17;;;;;;;2.80;2.60;;;18.70;52.70;;;;;;5152829;27;20215;-73
2022/04/16 07:14:43;;;;;;;3.00;2.80;;;18.60;52.80;;;;;;5153154;27;20208;-73
2022/04/16 07:17:08;;;;;;;2.88;2.67;;;18.50;52.90;;;;;;5153325;27;20191;-73
2022/04/16 07:19:34;;;;;;;2.72;2.53;;;18.40;53.20;;;;;;5152600;27;20178;-73
2022/04/16 07:22:00;;;;;;;3.05;2.75;;;18.40;53.30;;;;;;5153531;27;20171;-74
2022/04/16 07:24:25;;;;;;;3.40;2.85;;;18.20;53.40;;;;;;5153444;27;20618;-71
2022/04/16 07:26:54;;;;;;;3.03;2.83;;;18.10;53.70;;;;;;5152271;27;20175;-72
2022/04/16 07:29:20;;;;;;;2.55;2.30;;;18.10;53.80;;;;;;5145238;27;20635;-72
2022/04/16 07:31:46;;;;;;;2.80;2.60;;;18.00;53.90;;;;;;5132548;28;20555;-71
2022/04/16 07:34:11;;;;;;;3.17;2.88;;;18.00;54.10;;;;;;5131858;28;20294;-72
2022/04/16 07:36:37;;;;;;;2.70;2.50;;;17.90;54.10;;;;;;5132249;28;20204;-72
2022/04/16 07:39:02;;;;;;;3.05;2.75;;;17.90;54.20;;;;;;5132696;28;20194;-72
2022/04/16 07:41:28;;;;;;;3.00;2.80;;;17.80;54.30;;;;;;5132026;28;20260;-72
2022/04/16 07:43:54;;;;;;;2.75;2.55;;;17.90;54.50;;;;;;5132214;28;20498;-73
2022/04/16 07:46:22;;;;;;;3.78;3.40;;;17.80;54.60;;;;;;5135908;27;20233;-72
2022/04/16 07:48:48;;;;;;;3.65;3.35;;;17.80;54.60;;;;;;5135771;27;20176;-74
2022/04/16 07:51:13;;;;;;;4.00;3.70;;;17.70;54.60;;;;;;5136622;27;20272;-71
2022/04/16 07:53:39;;;;;;;5.15;4.00;;;17.80;54.80;;;;;;5135575;27;20232;-74
2022/04/16 07:56:04;;;;;;;5.85;3.92;;;17.70;54.90;;;;;;5136334;27;20203;-73
2022/04/16 07:58:30;;;;;;;3.67;3.38;;;17.70;55.00;;;;;;5136344;27;20184;-75
2022/04/16 08:00:55;;;;;;;5.72;3.70;;;17.70;55.60;;;;;;5135372;27;20718;-72
2022/04/16 08:03:21;;;;;;;4.53;3.95;;;17.70;55.10;;;;;;5136179;27;20220;-71
2022/04/16 08:05:46;;;;;;;4.72;3.65;;;17.70;55.30;;;;;;5136044;27;20167;-72
2022/04/16 08:08:12;;;;;;;3.40;3.10;;;17.70;55.30;;;;;;5135674;27;20180;-70
2022/04/16 08:10:38;;;;;;;5.00;3.90;;;17.80;55.40;;;;;;5136490;27;20595;-72
2022/04/16 08:13:07;;;;;;;3.83;3.33;;;17.70;55.50;;;;;;5136172;27;20263;-69
2022/04/16 08:15:33;;;;;;;3.75;2.88;;;17.70;55.60;;;;;;5135527;27;20194;-74
2022/04/16 08:17:59;;;;;;;10.55;3.83;;;17.80;55.70;;;;;;5135705;27;20256;-73
2022/04/16 08:20:28;;;;;;;3.53;2.95;;;17.80;55.70;;;;;;5135898;27;20180;-72
2022/04/16 08:22:54;;;;;;;7.00;3.72;;;17.80;55.70;;;;;;5134831;27;20176;-73
2022/04/16 08:27:54;;;;;;;5.57;3.35;;;17.80;55.80;;;;;;5135558;27;20187;-73
2022/04/16 08:30:19;;;;;;;3.47;3.10;;;17.80;55.80;;;;;;5151428;27;20175;-71
2022/04/16 08:32:45;;;;;;;4.05;3.42;;;17.80;55.90;;;;;;5155893;27;20171;-71
2022/04/16 08:35:12;;;;;;;3.40;3.10;;;17.90;55.80;;;;;;5156457;27;20214;-71
2022/04/16 08:37:37;;;;;;;3.63;2.97;;;17.80;55.90;;;;;;5155300;27;20253;-71
2022/04/16 08:40:05;;;;;;;4.00;3.00;;;17.80;55.90;;;;;;5156284;27;20255;-71
2022/04/16 08:42:31;;;;;;;4.18;3.05;;;17.90;56.00;;;;;;5156306;27;20298;-73
2022/04/16 08:44:57;;;;;;;3.10;2.80;;;17.80;56.00;;;;;;5136893;27;20176;-72
2022/04/16 08:47:22;;;;;;;4.57;2.95;;;17.80;56.00;;;;;;5155940;27;20515;-72
2022/04/16 08:49:48;;;;;;;6.88;3.15;;;17.80;56.10;;;;;;5155939;27;20167;-70
2022/04/16 08:52:13;;;;;;;3.45;2.72;;;17.80;56.10;;;;;;5155446;27;20171;-71
2022/04/16 08:54:39;;;;;;;3.20;2.70;;;17.80;55.90;;;;;;5120477;27;20256;-70
2022/04/16 08:57:05;;;;;;;2.92;2.72;;;17.90;56.00;;;;;;5154426;27;20168;-71
2022/04/16 08:59:31;;;;;;;5.07;3.13;;;17.90;56.00;;;;;;5155886;27;20180;-74
2022/04/16 09:02:00;;;;;;;3.60;2.90;;;17.90;56.00;;;;;;5155631;27;20223;-73
2022/04/16 09:04:27;;;;;;;3.22;2.92;;;17.90;56.00;;;;;;5137042;27;20694;-75
2022/04/16 09:07:03;;;;;;;3.42;3.00;;;17.90;55.90;;;;;;5155616;27;20225;-71
2022/04/16 09:09:28;;;;;;;5.22;3.67;;;18.00;56.00;;;;;;5155625;27;20171;-69
2022/04/16 09:11:54;;;;;;;3.38;3.08;;;17.90;56.10;;;;;;5154545;27;20171;-71
2022/04/16 09:14:20;;;;;;;3.47;3.17;;;18.00;56.20;;;;;;5155591;27;20310;-74
2022/04/16 09:16:45;;;;;;;3.13;2.90;;;18.00;56.10;;;;;;5155510;27;20172;-74
2022/04/16 09:19:17;;;;;;;3.85;3.00;;;18.00;56.10;;;;;;5154858;27;20587;-74
2022/04/16 09:21:43;;;;;;;3.47;2.90;;;18.10;56.10;;;;;;5155184;27;20182;-73
2022/04/16 09:24:09;;;;;;;4.05;3.13;;;18.00;56.00;;;;;;5155368;27;20179;-73
2022/04/16 09:26:39;;;;;;;3.13;2.83;;;18.00;56.10;;;;;;5154283;27;20551;-73
2022/04/16 09:29:08;;;;;;;3.85;2.88;;;18.00;56.10;;;;;;5149744;27;20588;-72
2022/04/16 09:31:40;;;;;;;4.53;3.17;;;18.00;56.10;;;;;;5134766;27;20202;-72
2022/04/16 09:34:07;;;;;;;3.22;3.03;;;18.10;56.10;;;;;;5133664;27;20286;-72
2022/04/16 09:36:38;;;;;;;4.72;3.22;;;18.10;56.20;;;;;;5134296;27;20172;-73
2022/04/16 09:39:07;;;;;;;6.47;2.70;;;18.20;56.10;;;;;;5116517;27;20855;-72
2022/04/16 09:41:36;;;;;;;4.82;3.20;;;18.20;56.00;;;;;;5134036;27;20259;-73
2022/04/16 09:44:02;;;;;;;3.38;3.08;;;18.10;56.10;;;;;;5134404;27;20181;-70
2022/04/16 09:46:29;;;;;;;3.08;2.83;;;18.10;56.10;;;;;;5133373;27;20189;-70
2022/04/16 09:49:02;;;;;;;4.35;2.63;;;18.10;56.10;;;;;;5133782;27;20271;-73
2022/04/16 09:51:31;;;;;;;2.80;2.60;;;18.10;56.20;;;;;;5134241;27;20259;-70
2022/04/16 09:53:56;;;;;;;4.22;2.75;;;18.10;56.30;;;;;;5115309;27;20208;-72
2022/04/16 09:56:22;;;;;;;3.58;2.88;;;18.20;56.30;;;;;;5115699;27;20299;-72
2022/04/16 09:58:52;;;;;;;5.25;2.60;;;18.20;56.10;;;;;;5115268;27;20176;-72
2022/04/16 10:01:19;;;;;;;6.18;3.00;;;18.20;56.10;;;;;;5133097;27;20173;-71
2022/04/16 10:03:46;;;;;;;2.60;2.40;;;18.20;56.10;;;;;;5114991;27;20580;-71
2022/04/16 10:06:11;;;;;;;2.80;2.60;;;18.20;56.20;;;;;;5099142;27;20164;-72
2022/04/16 10:08:37;;;;;;;5.93;3.00;;;18.20;56.20;;;;;;5114579;27;20256;-69
2022/04/16 10:11:03;;;;;;;3.13;2.83;;;18.20;56.10;;;;;;5098141;27;20185;-70
2022/04/16 10:13:32;;;;;;;3.88;3.13;;;18.20;56.10;;;;;;5115162;27;20546;-68
2022/04/16 10:16:00;;;;;;;4.18;2.70;;;18.20;56.10;;;;;;5097541;27;20199;-68
2022/04/16 10:18:25;;;;;;;4.35;2.70;;;18.30;56.00;;;;;;5133371;27;20161;-69
2022/04/16 10:21:01;;;;;;;2.88;2.67;;;18.30;56.10;;;;;;5114867;27;20179;-69
2022/04/16 10:23:27;;;;;;;4.22;2.60;;;18.30;56.00;;;;;;5132696;27;20198;-68
2022/04/16 10:25:59;;;;;;;4.28;2.70;;;18.30;56.00;;;;;;5132998;27;20680;-69
2022/04/16 10:28:25;;;;;;;3.92;2.53;;;18.40;55.90;;;;;;5132757;27;20172;-71
2022/04/16 10:30:52;;;;;;;5.28;2.70;;;18.40;55.90;;;;;;5135267;27;20171;-71
2022/04/16 10:33:19;;;;;;;2.33;2.13;;;18.50;55.90;;;;;;5154314;27;20183;-72
2022/04/16 10:35:56;;;;;;;2.85;2.55;;;18.50;55.80;;;;;;5152905;27;20273;-72
2022/04/16 10:38:26;;;;;;;3.95;2.60;;;18.50;55.70;;;;;;5154284;27;20216;-74
2022/04/16 10:40:55;;;;;;;2.75;2.42;;;18.60;55.70;;;;;;5153676;27;20205;-72
2022/04/16 10:43:32;;;;;;;3.50;2.65;;;18.60;55.80;;;;;;5153126;27;20172;-72
2022/04/16 10:46:00;;;;;;;3.25;2.72;;;18.60;55.70;;;;;;5153497;27;20578;-73
2022/04/16 10:48:36;;;;;;;3.28;2.88;;;18.60;55.70;;;;;;5153986;27;20206;-74
2022/04/16 10:51:02;;;;;;;2.45;2.25;;;18.60;55.60;;;;;;5153128;27;20538;-70
2022/04/16 10:53:38;;;;;;;5.90;2.70;;;18.60;55.60;;;;;;5153725;27;20164;-73
2022/04/16 10:56:14;;;;;;;5.75;2.65;;;18.60;55.60;;;;;;5153927;27;20175;-73
2022/04/16 10:58:45;;;;;;;3.47;2.42;;;18.60;55.60;;;;;;5152908;27;20181;-74
2022/04/16 11:01:11;;;;;;;4.32;2.92;;;18.50;55.60;;;;;;5153806;27;20163;-73
2022/04/16 11:03:44;;;;;;;4.13;3.15;;;18.50;55.70;;;;;;5152533;27;20568;-72
2022/04/16 11:06:09;;;;;;;4.40;2.80;;;18.60;55.80;;;;;;5153711;27;20186;-72
2022/04/16 11:08:35;;;;;;;3.85;2.92;;;18.60;55.80;;;;;;5153129;27;20614;-71
2022/04/16 11:11:03;;;;;;;3.80;2.92;;;18.60;55.70;;;;;;5153008;27;20172;-70
2022/04/16 11:13:33;;;;;;;5.47;2.90;;;18.60;55.70;;;;;;5153512;27;20172;-69
2022/04/16 11:16:01;;;;;;;6.00;3.10;;;18.60;55.70;;;;;;5153141;27;20176;-71
2022/04/16 11:18:41;;;;;;;4.70;2.92;;;18.60;55.60;;;;;;5152671;27;20194;-70
2022/04/16 11:21:08;;;;;;;4.68;3.08;;;18.60;55.60;;;;;;5159726;27;20179;-71
2022/04/16 11:23:43;;;;;;;5.40;2.83;;;18.60;55.60;;;;;;5160413;27;20198;-70
2022/04/16 11:34:25;;;;;;;6.60;2.97;;;18.80;55.50;;;;;;5139244;27;20629;-71
2022/04/16 11:36:51;;;;;;;4.95;2.60;;;18.80;55.40;;;;;;5140232;27;20188;-69
2022/04/16 11:39:17;;;;;;;5.50;2.63;;;18.90;55.40;;;;;;5138792;27;20555;-70
2022/04/16 11:41:47;;;;;;;4.28;2.70;;;18.80;55.30;;;;;;5139020;27;20274;-71
2022/04/16 11:44:13;;;;;;;2.80;2.53;;;18.90;55.30;;;;;;5121042;27;20263;-70
2022/04/16 11:46:41;;;;;;;4.18;2.60;;;18.90;55.30;;;;;;5102664;27;20184;-69
2022/04/16 11:49:06;;;;;;;3.17;2.85;;;18.90;55.20;;;;;;5139097;27;20539;-70
2022/04/16 11:51:34;;;;;;;3.88;2.75;;;18.90;55.20;;;;;;5120765;27;20263;-70
2022/04/16 11:53:59;;;;;;;3.72;2.55;;;18.90;55.20;;;;;;5119910;27;20236;-68
2022/04/16 11:56:26;;;;;;;3.38;2.55;;;19.00;55.20;;;;;;5139332;27;20172;-70
2022/04/16 11:58:52;;;;;;;3.13;2.50;;;19.00;55.10;;;;;;5139183;27;20173;-68
2022/04/16 12:01:21;;;;;;;3.45;2.45;;;19.00;55.10;;;;;;5138666;27;20518;-69
2022/04/16 12:03:48;;;;;;;3.05;2.08;;;19.00;55.00;;;;;;5139485;27;20232;-68
2022/04/16 12:06:14;;;;;;;3.28;2.75;;;19.00;54.90;;;;;;5139024;27;20179;-70
2022/04/16 12:08:39;;;;;;;2.90;2.30;;;19.00;54.80;;;;;;5138175;27;20176;-68
2022/04/16 12:11:11;;;;;;;4.40;2.33;;;19.00;54.70;;;;;;5139945;27;20657;-71
2022/04/16 12:13:40;;;;;;;3.92;2.30;;;19.10;54.60;;;;;;5138734;27;20231;-71
2022/04/16 12:16:12;;;;;;;4.57;2.50;;;19.10;54.50;;;;;;5138398;27;20263;-70
2022/04/16 12:18:47;;;;;;;2.70;2.08;;;19.10;54.50;;;;;;5138663;27;20248;-69
2022/04/16 12:21:14;;;;;;;5.50;2.45;;;19.10;54.40;;;;;;5103023;27;20172;-71
2022/04/16 12:23:40;;;;;;;2.30;2.10;;;19.20;54.30;;;;;;5138603;27;20646;-70
2022/04/16 12:26:07;;;;;;;4.45;2.63;;;19.20;54.20;;;;;;5138935;27;20268;-71
2022/04/16 12:28:34;;;;;;;2.78;2.00;;;19.20;54.10;;;;;;5139305;27;20206;-69
2022/04/16 12:31:00;;;;;;;3.53;2.38;;;19.20;54.00;;;;;;5157813;27;20241;-68
2022/04/16 12:33:26;;;;;;;2.25;2.05;;;19.30;54.00;;;;;;5156411;27;20160;-67
2022/04/16 12:35:55;;;;;;;3.17;2.33;;;19.30;53.80;;;;;;5155281;27;20179;-68
2022/04/16 12:38:21;;;;;;;2.00;1.83;;;19.30;53.80;;;;;;5156402;27;20267;-69
2022/04/16 12:40:47;;;;;;;3.40;2.47;;;19.30;53.70;;;;;;5156467;27;20699;-69
2022/04/16 12:43:12;;;;;;;2.10;2.00;;;19.30;53.70;;;;;;5155729;27;20171;-70
2022/04/16 12:45:38;;;;;;;2.95;1.85;;;19.40;53.70;;;;;;5156076;27;20179;-69
2022/04/16 12:48:04;;;;;;;2.55;1.85;;;19.40;53.60;;;;;;5156224;27;20172;-70
2022/04/16 12:50:31;;;;;;;3.40;2.15;;;19.40;53.40;;;;;;5155171;27;20671;-70
2022/04/16 12:52:57;;;;;;;2.17;1.80;;;19.40;53.40;;;;;;5156030;27;20254;-70
2022/04/16 12:55:22;;;;;;;2.30;2.08;;;19.50;53.40;;;;;;5156166;27;20306;-71
2022/04/16 12:57:48;;;;;;;2.28;2.08;;;19.50;53.20;;;;;;5154995;27;20167;-69
2022/04/16 13:00:15;;;;;;;2.72;2.13;;;19.50;53.10;;;;;;5155921;27;20222;-70
2022/04/16 13:02:42;;;;;;;2.60;2.05;;;19.50;53.00;;;;;;5155490;27;20227;-69
2022/04/16 13:05:17;;;;;;;1.83;1.73;;;19.60;52.90;;;;;;5155007;27;20175;-68
2022/04/16 13:07:46;;;;;;;1.90;1.80;;;19.60;52.80;;;;;;5155615;27;20656;-70
2022/04/16 13:10:13;;;;;;;2.22;2.03;;;19.70;52.70;;;;;;5155142;27;20167;-72